sensor_id;sensor_type;location;lat;lon;timestamp;temperature;humidity
44537;DHT22;30245;51.966;6.292;2024-03-29T00:02:03;14.40;48.10
44537;DHT22;30245;51.966;6.292;2024-03-29T00:04:28;14.40;48.10
44537;DHT22;30245;51.966;6.292;2024-03-29T00:06:55;14.40;48.70
44537;DHT22;30245;51.966;6.292;2024-03-29T00:09:20;14.40;48.10
44537;DHT22;30245;51.966;6.292;2024-03-29T00:11:46;14.40;48.00
44537;DHT22;30245;51.966;6.292;2024-03-29T00:14:12;14.40;48.00
44537;DHT22;30245;51.966;6.292;2024-03-29T00:16:37;14.40;47.90
44537;DHT22;30245;51.966;6.292;2024-03-29T00:19:03;14.40;48.00
44537;DHT22;30245;51.966;6.292;2024-03-29T00:21:28;14.30;48.10
44537;DHT22;30245;51.966;6.292;2024-03-29T00:23:54;14.20;48.20
44537;DHT22;30245;51.966;6.292;2024-03-29T00:26:19;14.20;48.40
44537;DHT22;30245;51.966;6.292;2024-03-29T00:28:45;14.20;48.50
44537;DHT22;30245;51.966;6.292;2024-03-29T00:31:10;14.20;48.50
44537;DHT22;30245;51.966;6.292;2024-03-29T00:33:36;14.30;48.50
44537;DHT22;30245;51.966;6.292;2024-03-29T00:36:02;14.20;48.50
44537;DHT22;30245;51.966;6.292;2024-03-29T00:38:27;14.10;48.70
44537;DHT22;30245;51.966;6.292;2024-03-29T00:40:53;14.10;48.80
44537;DHT22;30245;51.966;6.292;2024-03-29T00:43:19;14.10;48.90
44537;DHT22;30245;51.966;6.292;2024-03-29T00:45:44;14.10;48.90
44537;DHT22;30245;51.966;6.292;2024-03-29T00:48:10;14.10;49.00
44537;DHT22;30245;51.966;6.292;2024-03-29T00:50:35;14.00;49.00
44537;DHT22;30245;51.966;6.292;2024-03-29T00:53:03;14.10;49.00
44537;DHT22;30245;51.966;6.292;2024-03-29T00:55:30;14.10;48.90
44537;DHT22;30245;51.966;6.292;2024-03-29T00:57:55;14.10;49.10
44537;DHT22;30245;51.966;6.292;2024-03-29T01:00:21;14.10;49.00
44537;DHT22;30245;51.966;6.292;2024-03-29T01:02:46;14.10;49.00
44537;DHT22;30245;51.966;6.292;2024-03-29T01:05:12;14.00;49.10
44537;DHT22;30245;51.966;6.292;2024-03-29T01:07:40;14.00;49.10
44537;DHT22;30245;51.966;6.292;2024-03-29T01:10:06;14.10;49.00
44537;DHT22;30245;51.966;6.292;2024-03-29T01:12:34;14.10;49.00
44537;DHT22;30245;51.966;6.292;2024-03-29T01:15:00;14.10;48.90
44537;DHT22;30245;51.966;6.292;2024-03-29T01:17:26;14.00;48.90
44537;DHT22;30245;51.966;6.292;2024-03-29T01:19:51;14.10;49.00
44537;DHT22;30245;51.966;6.292;2024-03-29T01:22:17;14.00;48.90
44537;DHT22;30245;51.966;6.292;2024-03-29T01:24:42;14.00;49.10
44537;DHT22;30245;51.966;6.292;2024-03-29T01:27:08;13.90;49.10
44537;DHT22;30245;51.966;6.292;2024-03-29T01:29:33;13.90;49.20
44537;DHT22;30245;51.966;6.292;2024-03-29T01:31:59;13.80;49.20
44537;DHT22;30245;51.966;6.292;2024-03-29T01:34:24;13.90;49.30
44537;DHT22;30245;51.966;6.292;2024-03-29T01:36:50;13.90;49.30
44537;DHT22;30245;51.966;6.292;2024-03-29T01:39:15;13.90;49.30
44537;DHT22;30245;51.966;6.292;2024-03-29T01:41:44;13.90;49.30
44537;DHT22;30245;51.966;6.292;2024-03-29T01:44:09;13.90;49.30
44537;DHT22;30245;51.966;6.292;2024-03-29T01:46:36;13.90;49.30
44537;DHT22;30245;51.966;6.292;2024-03-29T01:49:03;13.80;49.40
44537;DHT22;30245;51.966;6.292;2024-03-29T01:51:29;13.70;49.40
44537;DHT22;30245;51.966;6.292;2024-03-29T01:53:55;13.80;49.40
44537;DHT22;30245;51.966;6.292;2024-03-29T01:56:24;13.80;49.30
44537;DHT22;30245;51.966;6.292;2024-03-29T01:58:51;13.90;49.30
44537;DHT22;30245;51.966;6.292;2024-03-29T02:01:19;13.80;49.20
44537;DHT22;30245;51.966;6.292;2024-03-29T02:03:45;13.80;49.20
44537;DHT22;30245;51.966;6.292;2024-03-29T02:06:11;13.90;49.40
44537;DHT22;30245;51.966;6.292;2024-03-29T02:08:39;13.90;49.40
44537;DHT22;30245;51.966;6.292;2024-03-29T02:11:04;13.90;49.30
44537;DHT22;30245;51.966;6.292;2024-03-29T02:13:30;13.90;49.30
44537;DHT22;30245;51.966;6.292;2024-03-29T02:15:57;13.90;49.20
44537;DHT22;30245;51.966;6.292;2024-03-29T02:18:23;13.90;49.30
44537;DHT22;30245;51.966;6.292;2024-03-29T02:20:48;13.80;49.30
44537;DHT22;30245;51.966;6.292;2024-03-29T02:23:19;13.90;49.50
44537;DHT22;30245;51.966;6.292;2024-03-29T02:25:45;13.90;49.30
44537;DHT22;30245;51.966;6.292;2024-03-29T02:28:12;13.90;49.30
44537;DHT22;30245;51.966;6.292;2024-03-29T02:30:38;13.90;49.30
44537;DHT22;30245;51.966;6.292;2024-03-29T02:33:04;13.90;49.30
44537;DHT22;30245;51.966;6.292;2024-03-29T02:35:29;13.80;49.30
44537;DHT22;30245;51.966;6.292;2024-03-29T02:37:56;13.90;49.40
44537;DHT22;30245;51.966;6.292;2024-03-29T02:40:21;13.90;49.30
44537;DHT22;30245;51.966;6.292;2024-03-29T02:42:50;13.90;49.30
44537;DHT22;30245;51.966;6.292;2024-03-29T02:45:16;13.90;49.40
44537;DHT22;30245;51.966;6.292;2024-03-29T02:47:42;13.90;49.40
44537;DHT22;30245;51.966;6.292;2024-03-29T02:50:09;13.90;49.40
44537;DHT22;30245;51.966;6.292;2024-03-29T02:52:35;13.90;49.50
44537;DHT22;30245;51.966;6.292;2024-03-29T02:55:01;13.90;49.50
44537;DHT22;30245;51.966;6.292;2024-03-29T02:57:26;13.90;49.60
44537;DHT22;30245;51.966;6.292;2024-03-29T02:59:52;14.00;49.60
44537;DHT22;30245;51.966;6.292;2024-03-29T03:02:17;13.90;49.70
44537;DHT22;30245;51.966;6.292;2024-03-29T03:04:43;13.90;49.80
44537;DHT22;30245;51.966;6.292;2024-03-29T03:07:09;13.90;49.90
44537;DHT22;30245;51.966;6.292;2024-03-29T03:09:53;13.90;49.90
44537;DHT22;30245;51.966;6.292;2024-03-29T03:12:37;14.00;49.80
44537;DHT22;30245;51.966;6.292;2024-03-29T03:15:03;14.00;49.80
44537;DHT22;30245;51.966;6.292;2024-03-29T03:17:30;14.10;49.80
44537;DHT22;30245;51.966;6.292;2024-03-29T03:19:56;14.20;49.70
44537;DHT22;30245;51.966;6.292;2024-03-29T03:22:22;14.20;49.70
44537;DHT22;30245;51.966;6.292;2024-03-29T03:24:47;14.20;49.70
44537;DHT22;30245;51.966;6.292;2024-03-29T03:27:13;14.20;49.70
44537;DHT22;30245;51.966;6.292;2024-03-29T03:29:39;14.20;49.80
44537;DHT22;30245;51.966;6.292;2024-03-29T03:32:05;14.20;49.80
44537;DHT22;30245;51.966;6.292;2024-03-29T03:34:31;14.10;49.80
44537;DHT22;30245;51.966;6.292;2024-03-29T03:36:57;14.10;50.00
44537;DHT22;30245;51.966;6.292;2024-03-29T03:39:22;14.10;50.20
44537;DHT22;30245;51.966;6.292;2024-03-29T03:41:48;14.10;50.50
44537;DHT22;30245;51.966;6.292;2024-03-29T03:44:14;14.10;50.70
44537;DHT22;30245;51.966;6.292;2024-03-29T03:46:40;14.10;50.80
44537;DHT22;30245;51.966;6.292;2024-03-29T03:49:05;14.10;50.90
44537;DHT22;30245;51.966;6.292;2024-03-29T03:51:31;14.10;51.00
44537;DHT22;30245;51.966;6.292;2024-03-29T03:53:56;14.10;51.00
44537;DHT22;30245;51.966;6.292;2024-03-29T03:56:22;14.10;51.20
44537;DHT22;30245;51.966;6.292;2024-03-29T03:58:48;14.10;51.10
44537;DHT22;30245;51.966;6.292;2024-03-29T04:01:13;14.10;51.30
44537;DHT22;30245;51.966;6.292;2024-03-29T04:03:39;14.10;51.60
44537;DHT22;30245;51.966;6.292;2024-03-29T04:06:05;14.10;51.70
44537;DHT22;30245;51.966;6.292;2024-03-29T04:08:32;14.00;51.90
44537;DHT22;30245;51.966;6.292;2024-03-29T04:10:57;14.10;52.10
44537;DHT22;30245;51.966;6.292;2024-03-29T04:13:23;14.10;52.10
44537;DHT22;30245;51.966;6.292;2024-03-29T04:15:49;14.10;52.10
44537;DHT22;30245;51.966;6.292;2024-03-29T04:18:14;14.10;52.30
44537;DHT22;30245;51.966;6.292;2024-03-29T04:20:40;14.10;52.30
44537;DHT22;30245;51.966;6.292;2024-03-29T04:23:06;14.00;52.40
44537;DHT22;30245;51.966;6.292;2024-03-29T04:25:32;14.10;52.40
44537;DHT22;30245;51.966;6.292;2024-03-29T04:27:58;14.20;52.50
44537;DHT22;30245;51.966;6.292;2024-03-29T04:30:24;14.20;52.40
44537;DHT22;30245;51.966;6.292;2024-03-29T04:32:50;14.30;52.40
44537;DHT22;30245;51.966;6.292;2024-03-29T04:35:15;14.30;52.30
44537;DHT22;30245;51.966;6.292;2024-03-29T04:37:41;14.30;52.40
44537;DHT22;30245;51.966;6.292;2024-03-29T04:40:07;14.30;52.30
44537;DHT22;30245;51.966;6.292;2024-03-29T04:42:32;14.30;52.30
44537;DHT22;30245;51.966;6.292;2024-03-29T04:44:58;14.30;52.30
44537;DHT22;30245;51.966;6.292;2024-03-29T04:47:23;14.30;52.30
44537;DHT22;30245;51.966;6.292;2024-03-29T04:49:49;14.40;52.40
44537;DHT22;30245;51.966;6.292;2024-03-29T04:52:14;14.40;52.50
44537;DHT22;30245;51.966;6.292;2024-03-29T04:54:40;14.40;52.50
44537;DHT22;30245;51.966;6.292;2024-03-29T04:57:06;14.50;52.50
44537;DHT22;30245;51.966;6.292;2024-03-29T04:59:32;14.50;52.40
44537;DHT22;30245;51.966;6.292;2024-03-29T05:02:01;14.40;52.50
44537;DHT22;30245;51.966;6.292;2024-03-29T05:04:27;14.50;52.90
44537;DHT22;30245;51.966;6.292;2024-03-29T05:09:18;14.40;52.70
44537;DHT22;30245;51.966;6.292;2024-03-29T05:11:43;14.30;53.00
44537;DHT22;30245;51.966;6.292;2024-03-29T05:14:09;14.30;53.30
44537;DHT22;30245;51.966;6.292;2024-03-29T05:16:35;14.20;53.50
44537;DHT22;30245;51.966;6.292;2024-03-29T05:19:01;14.20;53.70
44537;DHT22;30245;51.966;6.292;2024-03-29T05:21:26;14.10;53.90
44537;DHT22;30245;51.966;6.292;2024-03-29T05:23:52;14.10;54.10
44537;DHT22;30245;51.966;6.292;2024-03-29T05:26:18;14.10;54.30
44537;DHT22;30245;51.966;6.292;2024-03-29T05:28:44;14.10;54.40
44537;DHT22;30245;51.966;6.292;2024-03-29T05:31:13;14.00;54.50
44537;DHT22;30245;51.966;6.292;2024-03-29T05:33:42;14.00;55.30
44537;DHT22;30245;51.966;6.292;2024-03-29T05:36:08;14.00;54.90
44537;DHT22;30245;51.966;6.292;2024-03-29T05:38:36;14.00;55.20
44537;DHT22;30245;51.966;6.292;2024-03-29T05:41:03;13.90;55.20
44537;DHT22;30245;51.966;6.292;2024-03-29T05:43:28;13.90;55.40
44537;DHT22;30245;51.966;6.292;2024-03-29T05:45:54;13.90;55.50
44537;DHT22;30245;51.966;6.292;2024-03-29T05:48:20;13.90;55.60
44537;DHT22;30245;51.966;6.292;2024-03-29T05:50:45;13.90;55.70
44537;DHT22;30245;51.966;6.292;2024-03-29T05:53:11;13.90;55.90
44537;DHT22;30245;51.966;6.292;2024-03-29T05:55:37;13.80;55.90
44537;DHT22;30245;51.966;6.292;2024-03-29T05:58:02;13.90;56.00
44537;DHT22;30245;51.966;6.292;2024-03-29T06:00:28;13.90;56.00
44537;DHT22;30245;51.966;6.292;2024-03-29T06:02:54;13.80;56.10
44537;DHT22;30245;51.966;6.292;2024-03-29T06:05:20;13.90;56.10
44537;DHT22;30245;51.966;6.292;2024-03-29T06:07:45;13.90;56.20
44537;DHT22;30245;51.966;6.292;2024-03-29T06:10:11;13.90;56.30
44537;DHT22;30245;51.966;6.292;2024-03-29T06:12:37;13.90;56.40
44537;DHT22;30245;51.966;6.292;2024-03-29T06:15:07;13.80;56.50
44537;DHT22;30245;51.966;6.292;2024-03-29T06:17:51;13.80;56.80
44537;DHT22;30245;51.966;6.292;2024-03-29T06:20:17;13.80;56.80
44537;DHT22;30245;51.966;6.292;2024-03-29T06:22:43;13.70;57.00
44537;DHT22;30245;51.966;6.292;2024-03-29T06:25:09;13.70;57.30
44537;DHT22;30245;51.966;6.292;2024-03-29T06:27:35;13.70;57.50
44537;DHT22;30245;51.966;6.292;2024-03-29T06:30:02;13.60;57.60
44537;DHT22;30245;51.966;6.292;2024-03-29T06:32:29;13.60;57.60
44537;DHT22;30245;51.966;6.292;2024-03-29T06:34:54;13.50;57.80
44537;DHT22;30245;51.966;6.292;2024-03-29T06:37:20;13.50;58.10
44537;DHT22;30245;51.966;6.292;2024-03-29T06:39:51;13.50;58.20
44537;DHT22;30245;51.966;6.292;2024-03-29T06:42:16;13.60;58.30
44537;DHT22;30245;51.966;6.292;2024-03-29T06:44:42;13.50;58.30
44537;DHT22;30245;51.966;6.292;2024-03-29T06:47:08;13.60;58.50
44537;DHT22;30245;51.966;6.292;2024-03-29T06:49:34;13.60;58.40
44537;DHT22;30245;51.966;6.292;2024-03-29T06:51:59;13.70;58.40
44537;DHT22;30245;51.966;6.292;2024-03-29T06:54:27;13.70;58.30
44537;DHT22;30245;51.966;6.292;2024-03-29T06:56:53;13.80;58.30
44537;DHT22;30245;51.966;6.292;2024-03-29T06:59:19;13.90;58.20
44537;DHT22;30245;51.966;6.292;2024-03-29T07:01:45;13.90;58.10
44537;DHT22;30245;51.966;6.292;2024-03-29T07:04:13;13.90;58.20
44537;DHT22;30245;51.966;6.292;2024-03-29T07:06:38;13.90;58.20
44537;DHT22;30245;51.966;6.292;2024-03-29T07:09:05;14.00;58.20
44537;DHT22;30245;51.966;6.292;2024-03-29T07:11:31;14.10;58.20
44537;DHT22;30245;51.966;6.292;2024-03-29T07:13:57;14.10;58.20
44537;DHT22;30245;51.966;6.292;2024-03-29T07:16:22;14.10;58.10
44537;DHT22;30245;51.966;6.292;2024-03-29T07:18:48;14.10;58.80
44537;DHT22;30245;51.966;6.292;2024-03-29T07:21:13;14.10;58.20
44537;DHT22;30245;51.966;6.292;2024-03-29T07:23:39;14.10;58.20
44537;DHT22;30245;51.966;6.292;2024-03-29T07:26:05;14.10;58.20
44537;DHT22;30245;51.966;6.292;2024-03-29T07:28:31;14.20;58.30
44537;DHT22;30245;51.966;6.292;2024-03-29T07:30:57;14.20;58.30
44537;DHT22;30245;51.966;6.292;2024-03-29T07:33:24;14.20;58.30
44537;DHT22;30245;51.966;6.292;2024-03-29T07:35:53;14.30;58.40
44537;DHT22;30245;51.966;6.292;2024-03-29T07:38:19;14.30;58.30
44537;DHT22;30245;51.966;6.292;2024-03-29T07:40:46;14.40;58.30
44537;DHT22;30245;51.966;6.292;2024-03-29T07:43:11;14.50;58.20
44537;DHT22;30245;51.966;6.292;2024-03-29T07:45:42;14.60;58.10
44537;DHT22;30245;51.966;6.292;2024-03-29T07:48:13;14.70;57.80
44537;DHT22;30245;51.966;6.292;2024-03-29T07:50:44;14.80;57.70
44537;DHT22;30245;51.966;6.292;2024-03-29T07:53:09;14.90;57.70
44537;DHT22;30245;51.966;6.292;2024-03-29T07:55:36;14.90;57.70
44537;DHT22;30245;51.966;6.292;2024-03-29T07:58:02;15.10;57.60
44537;DHT22;30245;51.966;6.292;2024-03-29T08:00:31;15.20;57.30
44537;DHT22;30245;51.966;6.292;2024-03-29T08:02:57;15.30;57.30
44537;DHT22;30245;51.966;6.292;2024-03-29T08:05:22;15.40;57.10
44537;DHT22;30245;51.966;6.292;2024-03-29T08:07:48;15.40;56.90
44537;DHT22;30245;51.966;6.292;2024-03-29T08:10:13;15.50;56.80
44537;DHT22;30245;51.966;6.292;2024-03-29T08:12:39;15.40;56.90
44537;DHT22;30245;51.966;6.292;2024-03-29T08:15:05;15.50;56.80
44537;DHT22;30245;51.966;6.292;2024-03-29T08:17:31;15.60;56.70
44537;DHT22;30245;51.966;6.292;2024-03-29T08:19:56;15.60;56.60
44537;DHT22;30245;51.966;6.292;2024-03-29T08:22:22;15.60;56.60
44537;DHT22;30245;51.966;6.292;2024-03-29T08:24:47;15.60;56.60
44537;DHT22;30245;51.966;6.292;2024-03-29T08:27:13;15.70;56.50
44537;DHT22;30245;51.966;6.292;2024-03-29T08:29:44;15.80;56.40
44537;DHT22;30245;51.966;6.292;2024-03-29T08:32:09;15.70;56.30
44537;DHT22;30245;51.966;6.292;2024-03-29T08:34:36;15.70;56.40
44537;DHT22;30245;51.966;6.292;2024-03-29T08:37:02;15.80;56.50
44537;DHT22;30245;51.966;6.292;2024-03-29T08:39:31;15.80;56.40
44537;DHT22;30245;51.966;6.292;2024-03-29T08:41:58;15.70;56.70
44537;DHT22;30245;51.966;6.292;2024-03-29T08:44:24;15.80;56.80
44537;DHT22;30245;51.966;6.292;2024-03-29T08:46:50;15.80;56.60
44537;DHT22;30245;51.966;6.292;2024-03-29T08:49:16;15.90;56.40
44537;DHT22;30245;51.966;6.292;2024-03-29T08:51:42;15.90;56.40
44537;DHT22;30245;51.966;6.292;2024-03-29T08:54:07;15.80;56.40
44537;DHT22;30245;51.966;6.292;2024-03-29T08:56:33;15.90;56.40
44537;DHT22;30245;51.966;6.292;2024-03-29T08:59:03;16.10;56.30
44537;DHT22;30245;51.966;6.292;2024-03-29T09:01:36;16.10;56.10
44537;DHT22;30245;51.966;6.292;2024-03-29T09:04:02;16.20;56.10
44537;DHT22;30245;51.966;6.292;2024-03-29T09:06:28;16.20;55.80
44537;DHT22;30245;51.966;6.292;2024-03-29T09:08:54;16.30;55.70
44537;DHT22;30245;51.966;6.292;2024-03-29T09:11:19;16.30;55.50
44537;DHT22;30245;51.966;6.292;2024-03-29T09:13:45;16.20;55.30
44537;DHT22;30245;51.966;6.292;2024-03-29T09:16:10;16.10;55.40
44537;DHT22;30245;51.966;6.292;2024-03-29T09:18:36;16.10;55.80
44537;DHT22;30245;51.966;6.292;2024-03-29T09:21:02;16.00;55.80
44537;DHT22;30245;51.966;6.292;2024-03-29T09:23:28;16.00;55.90
44537;DHT22;30245;51.966;6.292;2024-03-29T09:25:57;16.00;55.90
44537;DHT22;30245;51.966;6.292;2024-03-29T09:28:23;16.00;55.80
44537;DHT22;30245;51.966;6.292;2024-03-29T09:30:49;16.00;55.70
44537;DHT22;30245;51.966;6.292;2024-03-29T09:33:15;15.90;55.70
44537;DHT22;30245;51.966;6.292;2024-03-29T09:35:40;16.00;55.70
44537;DHT22;30245;51.966;6.292;2024-03-29T09:38:06;16.00;55.70
44537;DHT22;30245;51.966;6.292;2024-03-29T09:40:32;16.10;55.80
44537;DHT22;30245;51.966;6.292;2024-03-29T09:43:00;16.20;55.20
44537;DHT22;30245;51.966;6.292;2024-03-29T09:45:34;16.30;55.10
44537;DHT22;30245;51.966;6.292;2024-03-29T09:48:03;16.20;55.20
44537;DHT22;30245;51.966;6.292;2024-03-29T09:50:30;16.30;55.20
44537;DHT22;30245;51.966;6.292;2024-03-29T09:52:56;16.30;55.10
44537;DHT22;30245;51.966;6.292;2024-03-29T09:55:23;16.40;54.90
44537;DHT22;30245;51.966;6.292;2024-03-29T09:57:49;16.60;54.80
44537;DHT22;30245;51.966;6.292;2024-03-29T10:00:15;16.90;54.20
44537;DHT22;30245;51.966;6.292;2024-03-29T10:02:40;17.30;53.30
44537;DHT22;30245;51.966;6.292;2024-03-29T10:05:08;17.70;52.60
44537;DHT22;30245;51.966;6.292;2024-03-29T10:07:35;18.00;51.90
44537;DHT22;30245;51.966;6.292;2024-03-29T10:10:03;18.10;51.80
44537;DHT22;30245;51.966;6.292;2024-03-29T10:12:29;18.20;51.80
44537;DHT22;30245;51.966;6.292;2024-03-29T10:14:56;18.30;52.00
44537;DHT22;30245;51.966;6.292;2024-03-29T10:17:31;18.50;51.30
44537;DHT22;30245;51.966;6.292;2024-03-29T10:20:03;18.30;51.60
44537;DHT22;30245;51.966;6.292;2024-03-29T10:22:30;18.20;51.90
44537;DHT22;30245;51.966;6.292;2024-03-29T10:24:57;18.10;52.20
44537;DHT22;30245;51.966;6.292;2024-03-29T10:27:27;18.10;52.50
44537;DHT22;30245;51.966;6.292;2024-03-29T10:29:55;18.20;52.30
44537;DHT22;30245;51.966;6.292;2024-03-29T10:32:22;18.10;52.90
44537;DHT22;30245;51.966;6.292;2024-03-29T10:34:49;18.00;52.90
44537;DHT22;30245;51.966;6.292;2024-03-29T10:37:14;17.80;53.30
44537;DHT22;30245;51.966;6.292;2024-03-29T10:39:42;17.90;53.60
44537;DHT22;30245;51.966;6.292;2024-03-29T10:42:08;18.00;53.20
44537;DHT22;30245;51.966;6.292;2024-03-29T10:44:38;18.10;53.00
44537;DHT22;30245;51.966;6.292;2024-03-29T10:47:06;18.10;53.10
44537;DHT22;30245;51.966;6.292;2024-03-29T10:49:33;18.50;52.80
44537;DHT22;30245;51.966;6.292;2024-03-29T10:52:00;19.00;52.20
44537;DHT22;30245;51.966;6.292;2024-03-29T10:54:28;19.30;51.50
44537;DHT22;30245;51.966;6.292;2024-03-29T10:56:59;19.40;50.90
44537;DHT22;30245;51.966;6.292;2024-03-29T10:59:44;19.40;50.40
44537;DHT22;30245;51.966;6.292;2024-03-29T11:02:15;19.60;50.50
44537;DHT22;30245;51.966;6.292;2024-03-29T11:04:43;19.60;50.60
44537;DHT22;30245;51.966;6.292;2024-03-29T11:07:18;20.00;50.20
44537;DHT22;30245;51.966;6.292;2024-03-29T11:09:46;20.50;49.50
44537;DHT22;30245;51.966;6.292;2024-03-29T11:12:15;20.50;48.40
44537;DHT22;30245;51.966;6.292;2024-03-29T11:14:46;20.40;48.30
44537;DHT22;30245;51.966;6.292;2024-03-29T11:17:15;20.30;48.20
44537;DHT22;30245;51.966;6.292;2024-03-29T11:19:41;19.90;48.30
44537;DHT22;30245;51.966;6.292;2024-03-29T11:22:07;19.80;49.10
44537;DHT22;30245;51.966;6.292;2024-03-29T11:24:33;19.70;49.10
44537;DHT22;30245;51.966;6.292;2024-03-29T11:27:10;19.70;49.20
44537;DHT22;30245;51.966;6.292;2024-03-29T11:29:36;19.70;48.90
44537;DHT22;30245;51.966;6.292;2024-03-29T11:32:06;19.70;48.80
44537;DHT22;30245;51.966;6.292;2024-03-29T11:34:31;19.70;48.70
44537;DHT22;30245;51.966;6.292;2024-03-29T11:37:09;19.90;48.80
44537;DHT22;30245;51.966;6.292;2024-03-29T11:39:35;19.90;48.50
44537;DHT22;30245;51.966;6.292;2024-03-29T11:42:01;20.00;48.00
44537;DHT22;30245;51.966;6.292;2024-03-29T11:44:27;19.90;47.80
44537;DHT22;30245;51.966;6.292;2024-03-29T11:46:54;19.80;47.80
44537;DHT22;30245;51.966;6.292;2024-03-29T11:49:22;19.70;47.80
44537;DHT22;30245;51.966;6.292;2024-03-29T11:51:48;19.70;48.00
44537;DHT22;30245;51.966;6.292;2024-03-29T11:54:14;19.90;47.60
44537;DHT22;30245;51.966;6.292;2024-03-29T11:56:39;19.90;47.00
44537;DHT22;30245;51.966;6.292;2024-03-29T11:59:05;19.90;46.90
44537;DHT22;30245;51.966;6.292;2024-03-29T12:01:31;20.00;46.90
44537;DHT22;30245;51.966;6.292;2024-03-29T12:03:59;20.10;46.50
44537;DHT22;30245;51.966;6.292;2024-03-29T12:06:24;20.30;46.20
44537;DHT22;30245;51.966;6.292;2024-03-29T12:08:50;20.40;46.10
44537;DHT22;30245;51.966;6.292;2024-03-29T12:11:18;20.60;45.70
44537;DHT22;30245;51.966;6.292;2024-03-29T12:13:44;20.50;45.10
44537;DHT22;30245;51.966;6.292;2024-03-29T12:16:10;20.40;45.20
44537;DHT22;30245;51.966;6.292;2024-03-29T12:18:36;20.10;45.50
44537;DHT22;30245;51.966;6.292;2024-03-29T12:21:02;20.00;46.30
44537;DHT22;30245;51.966;6.292;2024-03-29T12:23:28;20.00;45.80
44537;DHT22;30245;51.966;6.292;2024-03-29T12:25:56;20.00;45.90
44537;DHT22;30245;51.966;6.292;2024-03-29T12:28:23;20.10;45.90
44537;DHT22;30245;51.966;6.292;2024-03-29T12:30:49;20.30;45.80
44537;DHT22;30245;51.966;6.292;2024-03-29T12:33:19;20.50;45.20
44537;DHT22;30245;51.966;6.292;2024-03-29T12:35:47;20.70;44.80
44537;DHT22;30245;51.966;6.292;2024-03-29T12:38:19;20.90;44.20
44537;DHT22;30245;51.966;6.292;2024-03-29T12:40:48;20.90;43.70
44537;DHT22;30245;51.966;6.292;2024-03-29T12:43:14;20.80;43.40
44537;DHT22;30245;51.966;6.292;2024-03-29T12:45:42;20.80;43.50
44537;DHT22;30245;51.966;6.292;2024-03-29T12:48:16;20.90;43.60
44537;DHT22;30245;51.966;6.292;2024-03-29T12:50:44;21.10;43.20
44537;DHT22;30245;51.966;6.292;2024-03-29T12:53:11;21.40;42.70
44537;DHT22;30245;51.966;6.292;2024-03-29T12:55:39;21.50;42.50
44537;DHT22;30245;51.966;6.292;2024-03-29T12:58:05;21.50;42.30
44537;DHT22;30245;51.966;6.292;2024-03-29T13:00:35;21.40;42.40
44537;DHT22;30245;51.966;6.292;2024-03-29T13:03:01;21.50;42.20
44537;DHT22;30245;51.966;6.292;2024-03-29T13:05:27;21.60;42.20
44537;DHT22;30245;51.966;6.292;2024-03-29T13:07:54;21.70;41.60
44537;DHT22;30245;51.966;6.292;2024-03-29T13:10:21;21.80;41.50
44537;DHT22;30245;51.966;6.292;2024-03-29T13:12:48;21.90;41.00
44537;DHT22;30245;51.966;6.292;2024-03-29T13:15:24;21.80;40.60
44537;DHT22;30245;51.966;6.292;2024-03-29T13:17:52;21.60;40.80
44537;DHT22;30245;51.966;6.292;2024-03-29T13:20:18;21.60;41.00
44537;DHT22;30245;51.966;6.292;2024-03-29T13:22:45;21.80;40.80
44537;DHT22;30245;51.966;6.292;2024-03-29T13:25:16;22.00;40.90
44537;DHT22;30245;51.966;6.292;2024-03-29T13:27:42;22.20;40.70
44537;DHT22;30245;51.966;6.292;2024-03-29T13:30:10;22.10;40.70
44537;DHT22;30245;51.966;6.292;2024-03-29T13:32:40;22.30;40.70
44537;DHT22;30245;51.966;6.292;2024-03-29T13:35:07;22.40;40.60
44537;DHT22;30245;51.966;6.292;2024-03-29T13:37:38;22.50;40.20
44537;DHT22;30245;51.966;6.292;2024-03-29T13:40:05;22.50;40.10
44537;DHT22;30245;51.966;6.292;2024-03-29T13:42:31;22.50;40.30
44537;DHT22;30245;51.966;6.292;2024-03-29T13:44:57;22.60;39.90
44537;DHT22;30245;51.966;6.292;2024-03-29T13:47:23;22.50;40.00
44537;DHT22;30245;51.966;6.292;2024-03-29T13:49:48;22.40;40.10
44537;DHT22;30245;51.966;6.292;2024-03-29T13:52:18;22.30;40.00
44537;DHT22;30245;51.966;6.292;2024-03-29T13:54:44;22.30;40.30
44537;DHT22;30245;51.966;6.292;2024-03-29T13:57:12;22.30;40.30
44537;DHT22;30245;51.966;6.292;2024-03-29T13:59:38;22.40;40.00
44537;DHT22;30245;51.966;6.292;2024-03-29T14:02:04;22.40;40.20
44537;DHT22;30245;51.966;6.292;2024-03-29T14:04:30;22.40;40.40
44537;DHT22;30245;51.966;6.292;2024-03-29T14:06:56;22.60;40.20
44537;DHT22;30245;51.966;6.292;2024-03-29T14:09:22;22.70;39.70
44537;DHT22;30245;51.966;6.292;2024-03-29T14:11:47;22.80;39.50
44537;DHT22;30245;51.966;6.292;2024-03-29T14:14:13;22.80;39.10
44537;DHT22;30245;51.966;6.292;2024-03-29T14:16:39;22.60;38.80
44537;DHT22;30245;51.966;6.292;2024-03-29T14:19:04;22.40;38.80
44537;DHT22;30245;51.966;6.292;2024-03-29T14:21:30;22.50;38.90
44537;DHT22;30245;51.966;6.292;2024-03-29T14:23:57;22.50;38.70
44537;DHT22;30245;51.966;6.292;2024-03-29T14:26:23;22.40;38.50
44537;DHT22;30245;51.966;6.292;2024-03-29T14:28:48;22.40;38.40
44537;DHT22;30245;51.966;6.292;2024-03-29T14:31:14;22.30;38.60
44537;DHT22;30245;51.966;6.292;2024-03-29T14:33:39;22.10;39.10
44537;DHT22;30245;51.966;6.292;2024-03-29T14:36:05;22.00;39.30
44537;DHT22;30245;51.966;6.292;2024-03-29T14:38:30;21.90;39.70
44537;DHT22;30245;51.966;6.292;2024-03-29T14:40:56;21.90;39.90
44537;DHT22;30245;51.966;6.292;2024-03-29T14:43:22;22.00;39.80
44537;DHT22;30245;51.966;6.292;2024-03-29T14:45:48;22.00;39.80
44537;DHT22;30245;51.966;6.292;2024-03-29T14:48:15;21.90;39.70
44537;DHT22;30245;51.966;6.292;2024-03-29T14:50:44;21.80;40.10
44537;DHT22;30245;51.966;6.292;2024-03-29T14:53:10;21.70;40.30
44537;DHT22;30245;51.966;6.292;2024-03-29T14:55:36;21.60;40.50
44537;DHT22;30245;51.966;6.292;2024-03-29T14:58:06;21.60;40.60
44537;DHT22;30245;51.966;6.292;2024-03-29T15:00:32;21.30;40.90
44537;DHT22;30245;51.966;6.292;2024-03-29T15:02:57;21.20;41.10
44537;DHT22;30245;51.966;6.292;2024-03-29T15:05:23;21.10;41.50
44537;DHT22;30245;51.966;6.292;2024-03-29T15:07:51;21.00;42.40
44537;DHT22;30245;51.966;6.292;2024-03-29T15:10:17;21.00;41.80
44537;DHT22;30245;51.966;6.292;2024-03-29T15:12:44;21.00;41.70
44537;DHT22;30245;51.966;6.292;2024-03-29T15:15:11;21.00;41.80
44537;DHT22;30245;51.966;6.292;2024-03-29T15:17:37;21.00;41.90
44537;DHT22;30245;51.966;6.292;2024-03-29T15:20:03;21.10;42.00
44537;DHT22;30245;51.966;6.292;2024-03-29T15:22:31;21.10;42.10
44537;DHT22;30245;51.966;6.292;2024-03-29T15:24:57;21.30;42.00
44537;DHT22;30245;51.966;6.292;2024-03-29T15:27:22;21.30;41.70
44537;DHT22;30245;51.966;6.292;2024-03-29T15:30:07;21.30;41.80